Time;durP1;ratioP1;P1;durP2;ratioP2;P2;SDS_P1;SDS_P2;PMS_P1;PMS_P2;Temp;Humidity;BMP_temperature;BMP_pressure;BME280_temperature;BME280_humidity;BME280_pressure;Samples;Min_cycle;Max_cycle;Signal;HPM_P1;HPM_P2
2022/04/16 00:05:48;;;;;;;7.90;5.70;;;;;;;5.91;83.68;99126.13;432635;1271;99164;-40
2022/04/16 00:15:57;;;;;;;8.80;6.10;;;;;;;5.73;84.24;99134.02;432574;1271;107676;-44
2022/04/16 00:26:05;;;;;;;6.50;5.00;;;;;;;5.49;84.71;99139.31;432707;1270;101520;-43
2022/04/16 00:36:14;;;;;;;7.20;5.50;;;;;;;5.39;84.60;99145.37;432780;1270;112368;-42
2022/04/16 00:56:27;;;;;;;9.60;6.60;;;;;;;5.25;85.15;99155.86;432683;1269;98863;-40
2022/04/16 01:06:40;;;;;;;8.10;6.50;;;;;;;5.15;86.00;99166.44;432603;1270;108732;-42
2022/04/16 01:16:47;;;;;;;7.20;6.10;;;;;;;5.10;85.75;99167.84;432831;1270;99420;-42
2022/04/16 01:26:54;;;;;;;7.20;5.70;;;;;;;5.08;85.87;99179.51;433249;1261;112290;-45
2022/04/16 01:37:02;;;;;;;8.40;5.70;;;;;;;4.99;85.74;99178.63;432590;1271;108811;-41
2022/04/16 02:07:23;;;;;;;9.00;6.20;;;;;;;4.72;85.62;99210.75;432767;1270;99356;-44
2022/04/16 02:17:32;;;;;;;4.80;4.10;;;;;;;4.65;85.79;99218.13;432872;1270;112412;-44
2022/04/16 02:27:40;;;;;;;4.70;4.10;;;;;;;4.59;85.70;99213.89;432903;1269;108759;-42
2022/04/16 02:37:47;;;;;;;5.50;4.60;;;;;;;4.52;85.91;99215.06;432846;1269;99282;-42
2022/04/16 02:47:54;;;;;;;5.30;4.30;;;;;;;4.53;85.93;99216.30;433077;1270;109339;-41
2022/04/16 02:58:02;;;;;;;5.80;4.20;;;;;;;4.50;86.01;99220.11;433096;1269;99342;-43
2022/04/16 03:08:07;;;;;;;6.40;5.00;;;;;;;4.45;86.18;99233.45;432888;1270;112140;-41
2022/04/16 03:18:14;;;;;;;10.70;6.50;;;;;;;4.41;86.74;99243.35;433107;1270;108848;-44
2022/04/16 03:28:22;;;;;;;8.40;5.10;;;;;;;4.37;87.14;99256.36;433181;1270;98372;-45
2022/04/16 03:38:28;;;;;;;9.90;6.00;;;;;;;4.35;87.33;99269.31;432969;1271;107133;-42
2022/04/16 03:48:35;;;;;;;10.60;8.20;;;;;;;4.33;87.68;99277.73;433011;1269;99162;-43
2022/04/16 04:09:06;;;;;;;21.10;12.50;;;;;;;4.34;87.79;99316.41;432918;1270;108513;-41
2022/04/16 04:19:13;;;;;;;22.30;15.30;;;;;;;4.36;87.87;99331.36;433178;1270;99129;-44
2022/04/16 04:29:20;;;;;;;15.80;12.10;;;;;;;4.38;88.01;99340.77;433039;1269;108861;-44
2022/04/16 04:39:28;;;;;;;16.00;12.90;;;;;;;4.40;87.78;99348.06;433019;1270;99284;-42
2022/04/16 04:49:36;;;;;;;11.90;9.20;;;;;;;4.38;87.75;99355.24;433165;1270;112414;-41
2022/04/16 05:09:50;;;;;;;14.80;9.40;;;;;;;4.22;87.51;99381.05;433128;1270;99267;-40
2022/04/16 05:40:19;;;;;;;34.30;16.50;;;;;;;4.19;87.14;99420.86;433177;1270;112486;-44
2022/04/16 05:50:26;;;;;;;24.90;15.80;;;;;;;4.12;87.22;99432.29;432896;1270;108886;-42
2022/04/16 06:00:33;;;;;;;47.90;25.30;;;;;;;4.16;87.21;99436.26;433186;1269;99275;-39
2022/04/16 06:10:40;;;;;;;8.10;6.70;;;;;;;4.31;86.93;99446.13;433070;1270;109308;-40
2022/04/16 06:20:50;;;;;;;13.00;7.80;;;;;;;4.39;86.62;99453.75;433172;1270;99254;-43
2022/04/16 06:30:57;;;;;;;9.90;7.50;;;;;;;4.34;86.44;99452.17;433138;1270;112463;-44
2022/04/16 06:41:04;;;;;;;6.10;4.40;;;;;;;4.30;86.19;99463.77;433186;1270;108878;-43
2022/04/16 06:51:11;;;;;;;6.70;5.90;;;;;;;4.40;85.86;99471.27;433044;1269;98296;-41
2022/04/16 07:01:18;;;;;;;10.40;7.30;;;;;;;4.44;85.54;99486.36;433129;1270;109158;-40
2022/04/16 07:11:26;;;;;;;9.20;7.10;;;;;;;4.56;85.20;99507.73;433143;1270;99268;-46
2022/04/16 07:21:33;;;;;;;4.00;3.50;;;;;;;4.73;84.18;99523.16;433164;1270;111316;-43
2022/04/16 07:31:40;;;;;;;5.70;5.00;;;;;;;4.71;83.39;99528.64;433322;1270;109079;-42
2022/04/16 07:41:50;;;;;;;7.00;4.70;;;;;;;4.67;82.59;99544.53;433159;1270;99251;-44
2022/04/16 07:51:58;;;;;;;4.90;3.60;;;;;;;4.88;81.65;99549.36;433133;1270;107923;-41
2022/04/16 08:02:06;;;;;;;6.60;4.80;;;;;;;4.72;80.39;99565.86;433208;1271;98824;-44
2022/04/16 08:12:13;;;;;;;5.10;4.40;;;;;;;4.88;79.94;99568.98;433223;1270;112386;-41
2022/04/16 08:22:21;;;;;;;4.10;2.90;;;;;;;5.28;78.61;99571.31;433018;1269;109317;-40
2022/04/16 08:32:29;;;;;;;3.80;3.40;;;;;;;5.62;76.63;99573.63;433181;1270;99389;-42
2022/04/16 08:42:38;;;;;;;4.20;3.40;;;;;;;6.41;75.24;99568.54;433067;1270;112320;-48
2022/04/16 08:52:45;;;;;;;2.20;2.10;;;;;;;7.23;71.81;99575.95;433141;1270;108981;-44
2022/04/16 09:02:54;;;;;;;3.20;2.30;;;;;;;7.28;68.17;99570.65;433229;1269;99284;-44
2022/04/16 09:13:03;;;;;;;5.30;2.10;;;;;;;7.00;66.20;99584.36;430506;1270;3774342;-40
2022/04/16 09:23:24;;;;;;;3.10;2.40;;;;;;;7.11;64.94;99594.45;433123;1270;109059;-40
2022/04/16 09:33:37;;;;;;;3.40;2.50;;;;;;;7.52;63.45;99600.67;433020;1270;98053;-44
2022/04/16 09:43:44;;;;;;;2.30;2.00;;;;;;;7.95;62.10;99616.14;433137;1270;112538;-43
2022/04/16 09:53:52;;;;;;;3.40;2.00;;;;;;;7.94;61.59;99621.55;432942;1269;109154;-42
2022/04/16 10:04:00;;;;;;;2.40;2.10;;;;;;;8.04;58.31;99629.91;433082;1270;98745;-41
2022/04/16 10:14:13;;;;;;;1.90;1.70;;;;;;;8.35;57.97;99630.69;433159;1270;112390;-45
2022/04/16 10:24:24;;;;;;;3.60;2.30;;;;;;;8.05;56.87;99643.42;433134;1270;108389;-40
2022/04/16 10:34:31;;;;;;;2.90;2.70;;;;;;;7.99;57.78;99653.45;432974;1270;98371;-42
2022/04/16 10:44:43;;;;;;;3.40;2.80;;;;;;;8.02;56.97;99654.93;433042;1271;111464;-43
2022/04/16 10:55:00;;;;;;;2.20;2.00;;;;;;;8.00;55.64;99660.67;432879;1270;109255;-45
2022/04/16 11:05:07;;;;;;;3.50;2.80;;;;;;;8.29;55.59;99664.41;433098;1270;99278;-46
2022/04/16 11:15:14;;;;;;;3.00;2.60;;;;;;;8.25;54.64;99673.69;433010;1270;107707;-44
2022/04/16 11:25:24;;;;;;;2.40;2.20;;;;;;;8.39;52.67;99674.66;432947;1270;98024;-42
2022/04/16 11:35:30;;;;;;;3.90;2.00;;;;;;;8.43;53.48;99681.20;432562;1270;111039;-42
2022/04/16 11:45:45;;;;;;;2.40;2.20;;;;;;;8.54;53.13;99684.34;433041;1270;107713;-44
2022/04/16 11:55:53;;;;;;;5.90;2.50;;;;;;;8.61;51.34;99680.38;432990;1270;99163;-42
2022/04/16 12:06:00;;;;;;;2.30;2.20;;;;;;;8.39;50.71;99689.19;433058;1270;113549;-46
2022/04/16 12:16:09;;;;;;;5.80;2.20;;;;;;;8.49;50.14;99688.72;433007;1270;108963;-43
2022/04/16 12:26:17;;;;;;;2.60;1.80;;;;;;;8.73;50.23;99695.44;433122;1270;98870;-43
2022/04/16 12:36:24;;;;;;;4.20;1.90;;;;;;;8.79;50.55;99699.33;433115;1270;112444;-44
2022/04/16 12:46:32;;;;;;;2.60;1.80;;;;;;;9.08;49.51;99700.42;432981;1270;108997;-42
2022/04/16 12:56:42;;;;;;;3.30;1.90;;;;;;;9.02;48.37;99707.06;432991;1270;99155;-41
2022/04/16 13:06:49;;;;;;;4.80;2.10;;;;;;;8.56;49.06;99717.77;433107;1270;112456;-41
2022/04/16 13:16:56;;;;;;;2.70;1.80;;;;;;;8.74;48.29;99712.96;433166;1269;108899;-40
2022/04/16 13:27:05;;;;;;;2.50;2.30;;;;;;;8.72;48.44;99706.62;433220;1270;99733;-43
2022/04/16 13:57:26;;;;;;;8.00;5.30;;;;;;;8.66;47.56;99713.67;433012;1270;99254;-41
2022/04/16 14:07:33;;;;;;;4.60;4.20;;;;;;;8.65;48.42;99719.63;433087;1269;112135;-40
2022/04/16 14:17:40;;;;;;;5.80;4.80;;;;;;;8.58;48.12;99717.78;433168;1270;108775;-43
2022/04/16 14:27:48;;;;;;;5.70;5.10;;;;;;;8.40;47.51;99714.30;433153;1271;98020;-43
2022/04/16 14:37:55;;;;;;;3.40;3.10;;;;;;;8.39;47.46;99714.66;432641;1271;112733;-41
2022/04/16 15:08:12;;;;;;;4.70;3.60;;;;;;;8.77;47.46;99716.69;433235;1270;98889;-44
2022/04/16 15:18:19;;;;;;;4.70;4.30;;;;;;;8.80;46.92;99709.41;433097;1271;108818;-45
2022/04/16 15:28:27;;;;;;;5.80;4.50;;;;;;;8.70;46.69;99707.30;433193;1270;99270;-44
2022/04/16 15:38:34;;;;;;;4.70;3.50;;;;;;;8.46;46.77;99712.93;433313;1270;109026;-44
2022/04/16 15:48:41;;;;;;;5.30;4.50;;;;;;;7.95;46.65;99718.29;432994;1269;99392;-44
2022/04/16 15:58:49;;;;;;;5.80;4.80;;;;;;;7.87;47.68;99713.58;433143;1270;112503;-44
2022/04/16 16:08:56;;;;;;;7.30;4.70;;;;;;;7.92;48.07;99717.80;432604;1271;108787;-41
2022/04/16 16:19:03;;;;;;;8.40;4.80;;;;;;;7.81;47.27;99719.02;433160;1270;99201;-42
2022/04/16 16:29:11;;;;;;;4.30;3.90;;;;;;;7.66;48.08;99724.23;433101;1271;108844;-40
2022/04/16 16:39:18;;;;;;;6.40;3.80;;;;;;;7.56;48.68;99731.27;433241;1271;99291;-41
2022/04/16 16:49:26;;;;;;;7.10;4.40;;;;;;;7.48;49.15;99734.42;433154;1270;112104;-41
2022/04/16 17:09:40;;;;;;;8.00;4.50;;;;;;;7.46;50.03;99747.85;433209;1269;98893;-41
2022/04/16 17:19:47;;;;;;;8.50;4.00;;;;;;;7.37;50.42;99756.66;433082;1269;112764;-41
2022/04/16 17:29:53;;;;;;;9.50;5.30;;;;;;;7.28;50.42;99760.75;432579;1271;107372;-40
2022/04/16 17:40:00;;;;;;;12.70;5.10;;;;;;;7.18;51.00;99768.14;432671;1271;99172;-41
2022/04/16 17:50:08;;;;;;;7.20;3.80;;;;;;;7.09;51.41;99772.14;432653;1270;112394;-41
2022/04/16 18:10:24;;;;;;;11.00;6.50;;;;;;;6.93;52.24;99798.23;432584;1271;99260;-41
2022/04/16 18:20:32;;;;;;;9.50;5.10;;;;;;;6.84;52.55;99806.04;432509;1271;108763;-41
2022/04/16 18:30:39;;;;;;;10.30;4.80;;;;;;;6.73;53.03;99813.78;432654;1270;101542;-44
2022/04/16 18:40:46;;;;;;;10.10;5.20;;;;;;;6.62;53.35;99819.48;432603;1269;112163;-41
2022/04/16 18:50:53;;;;;;;14.20;5.30;;;;;;;6.50;53.72;99829.28;432697;1271;108843;-43
2022/04/16 19:11:26;;;;;;;9.50;5.30;;;;;;;6.22;54.29;99832.46;432720;1270;108006;-45
2022/04/16 19:21:48;;;;;;;11.80;5.20;;;;;;;5.99;54.58;99842.38;432659;1271;98729;-46
2022/04/16 19:31:56;;;;;;;7.80;4.70;;;;;;;5.79;54.94;99853.35;432850;1271;112437;-45
2022/04/16 19:42:04;;;;;;;11.80;6.20;;;;;;;5.60;55.31;99857.00;432754;1271;108710;-43
2022/04/16 19:52:11;;;;;;;21.20;6.10;;;;;;;5.39;55.55;99856.77;432659;1269;99256;-43
2022/04/16 20:02:18;;;;;;;8.20;4.90;;;;;;;5.20;55.96;99854.87;432861;1271;112382;-43
2022/04/16 20:22:33;;;;;;;27.80;12.90;;;;;;;4.89;56.55;99850.64;432802;1270;99266;-41
2022/04/16 20:32:40;;;;;;;19.20;9.90;;;;;;;4.67;56.87;99854.78;432830;1271;112312;-40
2022/04/16 20:53:16;;;;;;;29.80;15.10;;;;;;;4.17;57.52;99861.73;432700;1270;98996;-45
2022/04/16 21:13:30;;;;;;;22.60;12.80;;;;;;;3.64;58.14;99868.05;428786;1270;5383756;-42
2022/04/16 21:23:37;;;;;;;18.70;10.10;;;;;;;3.41;58.30;99868.63;432762;1270;98827;-42
2022/04/16 21:33:44;;;;;;;28.90;11.60;;;;;;;3.15;58.67;99865.46;432776;1269;112628;-45
2022/04/16 21:43:51;;;;;;;25.90;10.20;;;;;;;2.92;59.31;99866.42;432774;1270;108895;-43
2022/04/16 21:53:59;;;;;;;21.30;11.20;;;;;;;2.70;59.63;99868.48;432809;1271;99244;-42
2022/04/16 22:04:09;;;;;;;19.20;8.40;;;;;;;2.57;60.13;99871.51;432719;1269;112379;-45
2022/04/16 22:14:18;;;;;;;28.30;12.70;;;;;;;2.42;60.34;99868.09;432584;1269;108705;-44
2022/04/16 22:24:25;;;;;;;31.80;13.40;;;;;;;2.19;60.72;99875.14;432717;1271;98036;-44
2022/04/16 22:34:32;;;;;;;29.20;11.20;;;;;;;1.98;61.27;99877.75;432811;1271;112521;-40
2022/04/16 22:44:39;;;;;;;33.60;12.60;;;;;;;1.74;61.62;99882.91;432759;1271;108629;-39
2022/04/16 22:54:46;;;;;;;32.60;12.90;;;;;;;1.45;62.14;99880.33;432908;1271;99133;-44
2022/04/16 23:04:53;;;;;;;34.20;15.50;;;;;;;1.22;62.47;99878.80;432985;1269;112348;-45
2022/04/16 23:25:26;;;;;;;31.60;15.40;;;;;;;1.11;63.17;99868.56;433055;1271;99165;-43
2022/04/16 23:35:34;;;;;;;35.90;17.20;;;;;;;1.12;63.70;99870.83;433087;1269;112493;-41
